createdAt,value
2022-11-15T00:00:04.061Z,10.96
2022-11-15T00:03:05.791Z,10.97
2022-11-15T00:06:03.628Z,10.98
2022-11-15T00:08:51.788Z,11.04
2022-11-15T00:11:38.355Z,11.08
2022-11-15T00:14:25.299Z,11.13
2022-11-15T00:17:11.545Z,11.19
2022-11-15T00:19:58.323Z,11.27
2022-11-15T00:22:44.957Z,11.32
2022-11-15T00:25:33.294Z,11.36
2022-11-15T00:28:20.074Z,11.39
2022-11-15T00:31:08.083Z,11.39
2022-11-15T00:33:54.613Z,11.40
2022-11-15T00:36:41.827Z,11.39
2022-11-15T00:39:28.227Z,11.40
2022-11-15T00:42:16.130Z,11.40
2022-11-15T00:45:02.793Z,11.36
2022-11-15T00:47:49.558Z,11.33
2022-11-15T00:50:35.998Z,11.28
2022-11-15T00:53:22.616Z,11.27
2022-11-15T00:56:09.349Z,11.26
2022-11-15T00:58:57.255Z,11.26
2022-11-15T01:01:43.930Z,11.25
2022-11-15T01:04:30.462Z,11.25
2022-11-15T01:07:17.173Z,11.25
2022-11-15T01:10:04.109Z,11.26
2022-11-15T01:12:51.000Z,11.27
2022-11-15T01:15:42.498Z,11.29
2022-11-15T01:18:28.943Z,11.32
2022-11-15T01:21:17.609Z,11.32
2022-11-15T01:24:04.010Z,11.33
2022-11-15T01:26:50.621Z,11.30
2022-11-15T01:29:37.317Z,11.28
2022-11-15T01:32:25.279Z,11.25
2022-11-15T01:35:11.680Z,11.20
2022-11-15T01:37:58.576Z,11.16
2022-11-15T01:40:45.064Z,11.10
2022-11-15T01:43:34.100Z,11.07
2022-11-15T01:46:26.267Z,11.08
2022-11-15T01:49:18.249Z,11.12
2022-11-15T01:52:07.492Z,11.15
2022-11-15T01:54:57.772Z,11.17
2022-11-15T01:57:46.465Z,11.23
2022-11-15T02:00:33.844Z,11.22
2022-11-15T02:03:21.088Z,11.22
2022-11-15T02:06:09.331Z,11.17
2022-11-15T02:08:56.928Z,11.06
2022-11-15T02:11:44.082Z,11.01
2022-11-15T02:14:31.525Z,10.98
2022-11-15T02:17:35.718Z,10.94
2022-11-15T02:20:39.673Z,10.86
2022-11-15T02:24:03.034Z,10.85
2022-11-15T02:27:09.678Z,10.79
2022-11-15T02:30:06.928Z,10.76
2022-11-15T02:32:59.531Z,10.76
2022-11-15T02:35:50.613Z,10.74
2022-11-15T02:38:42.667Z,10.76
2022-11-15T02:41:33.080Z,10.76
2022-11-15T02:44:24.618Z,10.75
2022-11-15T02:47:17.013Z,10.76
2022-11-15T02:50:09.046Z,10.74
2022-11-15T02:52:55.722Z,10.72
2022-11-15T02:55:45.623Z,10.70
2022-11-15T02:58:58.812Z,10.71
2022-11-15T03:01:55.508Z,10.73
2022-11-15T03:04:46.068Z,10.75
2022-11-15T03:07:38.948Z,10.78
2022-11-15T03:10:28.028Z,10.81
2022-11-15T03:13:20.942Z,10.78
2022-11-15T03:16:12.928Z,10.75
2022-11-15T03:19:04.479Z,10.69
2022-11-15T03:21:51.854Z,10.70
2022-11-15T03:24:40.613Z,10.64
2022-11-15T03:27:32.340Z,10.57
2022-11-15T03:30:19.943Z,10.56
2022-11-15T03:33:07.247Z,10.52
2022-11-15T03:35:54.773Z,10.46
2022-11-15T03:38:42.278Z,10.46
2022-11-15T03:41:32.724Z,10.48
2022-11-15T03:44:33.663Z,10.49
2022-11-15T03:47:23.796Z,10.54
2022-11-15T03:50:13.435Z,10.58
2022-11-15T03:53:00.671Z,10.64
2022-11-15T03:55:47.229Z,10.61
2022-11-15T03:58:35.338Z,10.61
2022-11-15T04:01:23.069Z,10.61
2022-11-15T04:04:09.667Z,10.55
2022-11-15T04:06:56.448Z,10.51
2022-11-15T04:09:56.764Z,10.48
2022-11-15T04:12:47.166Z,10.48
2022-11-15T04:15:35.259Z,10.47
2022-11-15T04:18:22.838Z,10.47
2022-11-15T04:21:27.260Z,10.52
2022-11-15T04:24:14.276Z,10.58
2022-11-15T04:27:01.092Z,10.64
2022-11-15T04:29:47.901Z,10.67
2022-11-15T04:32:35.641Z,10.70
2022-11-15T04:35:22.343Z,10.73
2022-11-15T04:38:10.811Z,10.76
2022-11-15T04:40:57.833Z,10.80
2022-11-15T04:43:44.282Z,10.84
2022-11-15T04:46:30.979Z,10.85
2022-11-15T04:49:19.147Z,10.86
2022-11-15T04:52:06.136Z,10.87
2022-11-15T04:54:52.486Z,10.83
2022-11-15T04:57:39.477Z,10.80
2022-11-15T05:00:26.223Z,10.81
2022-11-15T05:03:31.096Z,10.83
2022-11-15T05:06:19.030Z,10.82
2022-11-15T05:09:05.724Z,10.81
2022-11-15T05:11:52.170Z,10.83
2022-11-15T05:14:38.735Z,10.80
2022-11-15T05:17:25.493Z,10.80
2022-11-15T05:20:12.922Z,10.79
2022-11-15T05:23:00.784Z,10.73
2022-11-15T05:25:47.505Z,10.73
2022-11-15T05:28:34.336Z,10.73
2022-11-15T05:31:21.188Z,10.72
2022-11-15T05:34:07.930Z,10.71
2022-11-15T05:36:54.635Z,10.77
2022-11-15T05:39:42.614Z,10.79
2022-11-15T05:42:29.848Z,10.79
2022-11-15T05:45:16.783Z,10.79
2022-11-15T05:48:07.467Z,10.77
2022-11-15T05:50:54.434Z,10.77
2022-11-15T05:53:41.421Z,10.78
2022-11-15T05:56:30.532Z,10.75
2022-11-15T05:59:17.735Z,10.73
2022-11-15T06:02:04.446Z,10.78
2022-11-15T06:04:51.232Z,10.77
2022-11-15T06:07:37.972Z,10.78
2022-11-15T06:10:24.623Z,10.78
2022-11-15T06:13:12.794Z,10.78
2022-11-15T06:15:59.967Z,10.76
2022-11-15T06:18:46.216Z,10.75
2022-11-15T06:21:33.234Z,10.73
2022-11-15T06:24:20.057Z,10.72
2022-11-15T06:27:06.707Z,10.71
2022-11-15T06:29:54.204Z,10.71
2022-11-15T06:32:40.937Z,10.73
2022-11-15T06:35:27.283Z,10.74
2022-11-15T06:38:13.991Z,10.74
2022-11-15T06:41:03.688Z,10.75
2022-11-15T06:43:50.455Z,10.75
2022-11-15T06:46:38.447Z,10.77
2022-11-15T06:49:24.964Z,10.73
2022-11-15T06:52:11.402Z,10.69
2022-11-15T06:54:58.080Z,10.71
2022-11-15T06:57:51.991Z,10.74
2022-11-15T07:00:38.581Z,10.77
2022-11-15T07:03:26.846Z,10.79
2022-11-15T07:06:13.720Z,10.82
2022-11-15T07:09:00.406Z,10.84
2022-11-15T07:11:47.353Z,10.91
2022-11-15T07:14:33.943Z,10.97
2022-11-15T07:17:20.401Z,11.00
2022-11-15T07:20:09.305Z,11.04
2022-11-15T07:23:01.724Z,11.07
2022-11-15T07:25:48.415Z,11.11
2022-11-15T07:28:38.498Z,11.14
2022-11-15T07:31:25.594Z,11.18
2022-11-15T07:34:13.981Z,11.22
2022-11-15T07:37:02.087Z,11.27
2022-11-15T07:39:48.826Z,11.32
2022-11-15T07:42:52.499Z,11.38
2022-11-15T07:45:42.738Z,11.45
2022-11-15T07:48:40.219Z,11.54
2022-11-15T07:51:30.159Z,11.61
2022-11-15T07:54:18.210Z,11.69
2022-11-15T07:57:07.513Z,11.74
2022-11-15T07:59:54.444Z,11.81
2022-11-15T08:02:41.264Z,11.87
2022-11-15T08:05:27.549Z,11.93
2022-11-15T08:08:14.698Z,11.98
2022-11-15T08:11:02.807Z,12.03
2022-11-15T08:13:49.572Z,12.07
2022-11-15T08:16:36.204Z,12.12
2022-11-15T08:19:24.652Z,12.18
2022-11-15T08:22:11.235Z,12.20
2022-11-15T08:24:58.324Z,12.24
2022-11-15T08:27:46.673Z,12.29
2022-11-15T08:30:37.638Z,12.32
2022-11-15T08:33:24.111Z,12.32
2022-11-15T08:36:14.611Z,12.36
2022-11-15T08:39:01.004Z,12.36
2022-11-15T08:41:47.621Z,12.36
2022-11-15T08:44:35.170Z,12.38
2022-11-15T08:47:21.749Z,12.41
2022-11-15T08:50:09.430Z,12.42
2022-11-15T08:52:56.419Z,12.44
2022-11-15T08:55:43.084Z,12.48
2022-11-15T08:58:29.955Z,12.52
2022-11-15T09:01:20.173Z,12.57
2022-11-15T09:04:07.078Z,12.61
2022-11-15T09:06:53.831Z,12.65
2022-11-15T09:09:40.506Z,12.69
2022-11-15T09:12:27.645Z,12.72
2022-11-15T09:15:14.284Z,12.78
2022-11-15T09:18:02.642Z,12.83
2022-11-15T09:20:49.628Z,12.89
2022-11-15T09:23:36.363Z,12.96
2022-11-15T09:26:23.231Z,13.05
2022-11-15T09:29:09.889Z,13.14
2022-11-15T09:31:56.625Z,13.24
2022-11-15T09:34:44.659Z,13.29
2022-11-15T09:37:33.631Z,13.35
2022-11-15T09:40:21.335Z,13.34
2022-11-15T09:43:22.058Z,13.40
2022-11-15T09:46:16.006Z,13.43
2022-11-15T09:49:15.558Z,13.52
2022-11-15T09:52:01.264Z,13.62
2022-11-15T09:54:53.456Z,13.65
2022-11-15T09:57:23.248Z,13.65
2022-11-15T10:00:31.082Z,13.71
2022-11-15T10:03:02.924Z,13.74
2022-11-15T10:05:31.389Z,13.78
2022-11-15T10:08:06.239Z,13.82
2022-11-15T10:10:37.949Z,13.80
2022-11-15T10:13:06.358Z,13.82
2022-11-15T10:15:34.992Z,13.84
2022-11-15T10:18:29.219Z,13.83
2022-11-15T10:21:00.532Z,13.77
2022-11-15T10:23:30.386Z,13.76
2022-11-15T10:26:06.412Z,13.79
2022-11-15T10:28:35.647Z,13.80
2022-11-15T10:31:05.498Z,13.83
2022-11-15T10:33:35.457Z,13.80
2022-11-15T10:36:23.052Z,13.78
2022-11-15T10:38:57.714Z,13.73
2022-11-15T10:41:37.922Z,13.68
2022-11-15T10:44:33.372Z,13.69
2022-11-15T10:47:23.279Z,13.73
2022-11-15T10:50:04.287Z,13.68
2022-11-15T10:52:35.579Z,13.74
2022-11-15T10:55:14.963Z,13.83
2022-11-15T10:57:51.156Z,13.87
2022-11-15T11:00:31.222Z,13.92
2022-11-15T11:03:01.665Z,13.90
2022-11-15T11:05:35.224Z,13.96
2022-11-15T11:08:22.644Z,14.01
2022-11-15T11:11:01.431Z,14.00
2022-11-15T11:13:32.977Z,13.97
2022-11-15T11:16:24.469Z,14.01
2022-11-15T11:19:01.620Z,14.07
2022-11-15T11:21:41.103Z,14.11
2022-11-15T11:24:16.324Z,14.14
2022-11-15T11:26:56.692Z,14.18
2022-11-15T11:29:35.547Z,14.37
2022-11-15T11:32:10.174Z,14.55
2022-11-15T11:34:49.015Z,14.74
2022-11-15T11:37:23.643Z,14.85
2022-11-15T11:40:06.141Z,15.04
2022-11-15T11:42:59.160Z,15.56
2022-11-15T11:45:47.213Z,15.94
2022-11-15T11:48:16.974Z,15.98
2022-11-15T11:50:46.531Z,15.73
2022-11-15T11:53:25.605Z,15.71
2022-11-15T11:55:55.751Z,15.74
2022-11-15T11:58:28.131Z,15.73
2022-11-15T12:00:58.215Z,15.71
2022-11-15T12:03:30.831Z,15.46
2022-11-15T12:06:01.594Z,15.37
2022-11-15T12:08:35.619Z,15.42
2022-11-15T12:11:10.606Z,15.41
2022-11-15T12:13:40.420Z,15.42
2022-11-15T12:16:14.491Z,15.28
2022-11-15T12:18:45.548Z,15.17
2022-11-15T12:21:21.705Z,14.88
2022-11-15T12:23:56.177Z,14.84
2022-11-15T12:26:27.017Z,14.88
2022-11-15T12:29:07.426Z,14.89
2022-11-15T12:31:40.417Z,14.93
2022-11-15T12:34:17.489Z,14.98
2022-11-15T12:36:46.197Z,14.88
2022-11-15T12:39:14.647Z,14.92
2022-11-15T12:41:44.151Z,14.81
2022-11-15T12:44:14.786Z,14.78
2022-11-15T12:47:05.235Z,14.72
2022-11-15T12:49:49.148Z,14.66
2022-11-15T12:52:18.031Z,14.56
2022-11-15T12:55:04.096Z,14.48
2022-11-15T12:57:39.517Z,14.49
2022-11-15T13:00:47.799Z,14.51
2022-11-15T13:03:24.178Z,14.48
2022-11-15T13:06:18.066Z,14.45
2022-11-15T13:08:51.748Z,14.40
2022-11-15T13:11:49.055Z,14.37
2022-11-15T13:14:49.277Z,14.27
2022-11-15T13:17:35.406Z,14.26
2022-11-15T13:20:23.829Z,14.20
2022-11-15T13:22:52.251Z,14.17
2022-11-15T13:25:28.524Z,14.16
2022-11-15T13:27:59.602Z,14.12
2022-11-15T13:30:32.486Z,14.09
2022-11-15T13:33:07.638Z,14.08
2022-11-15T13:35:40.675Z,14.07
2022-11-15T13:38:08.693Z,14.09
2022-11-15T13:40:38.081Z,14.04
2022-11-15T13:43:21.370Z,13.99
2022-11-15T13:46:12.639Z,13.96
2022-11-15T13:48:40.945Z,13.92
2022-11-15T13:51:15.162Z,13.93
2022-11-15T13:53:47.409Z,13.99
2022-11-15T13:56:16.705Z,14.06
2022-11-15T13:58:44.721Z,14.16
2022-11-15T14:01:17.645Z,14.26
2022-11-15T14:03:50.658Z,14.28
2022-11-15T14:06:21.834Z,14.31
2022-11-15T14:09:19.109Z,14.29
2022-11-15T14:11:54.597Z,14.22
2022-11-15T14:14:24.177Z,14.22
2022-11-15T14:16:54.903Z,14.18
2022-11-15T14:19:38.514Z,14.16
2022-11-15T14:22:13.275Z,14.13
2022-11-15T14:24:41.495Z,14.11
2022-11-15T14:27:24.438Z,14.16
2022-11-15T14:29:52.618Z,14.17
2022-11-15T14:32:22.858Z,14.14
2022-11-15T14:34:51.793Z,14.13
2022-11-15T14:37:24.252Z,14.10
2022-11-15T14:39:52.880Z,14.04
2022-11-15T14:42:22.390Z,14.04
2022-11-15T14:44:50.636Z,14.06
2022-11-15T14:47:19.479Z,14.08
2022-11-15T14:49:47.488Z,14.09
2022-11-15T14:52:32.207Z,14.13
2022-11-15T14:55:00.431Z,14.14
2022-11-15T14:57:28.643Z,14.14
2022-11-15T14:59:57.662Z,14.11
2022-11-15T15:02:27.646Z,14.09
2022-11-15T15:04:55.878Z,14.07
2022-11-15T15:07:24.255Z,14.04
2022-11-15T15:10:02.762Z,14.01
2022-11-15T15:12:42.243Z,13.95
2022-11-15T15:15:15.056Z,13.93
2022-11-15T15:17:43.310Z,13.90
2022-11-15T15:20:11.747Z,13.88
2022-11-15T15:22:40.476Z,13.87
2022-11-15T15:25:23.193Z,13.85
2022-11-15T15:27:51.648Z,13.84
2022-11-15T15:30:19.607Z,13.82
2022-11-15T15:32:47.746Z,13.83
2022-11-15T15:35:16.790Z,13.83
2022-11-15T15:37:46.222Z,13.84
2022-11-15T15:40:17.375Z,13.84
2022-11-15T15:42:46.877Z,13.85
2022-11-15T15:45:15.803Z,13.85
2022-11-15T15:47:44.129Z,13.83
2022-11-15T15:50:20.229Z,13.82
2022-11-15T15:52:48.441Z,13.78
2022-11-15T15:55:16.363Z,13.75
2022-11-15T15:57:44.517Z,13.70
2022-11-15T16:00:15.017Z,13.67
2022-11-15T16:02:43.333Z,13.62
2022-11-15T16:05:12.092Z,13.60
2022-11-15T16:07:41.461Z,13.58
2022-11-15T16:10:19.812Z,13.60
2022-11-15T16:12:49.018Z,13.61
2022-11-15T16:15:18.499Z,13.63
2022-11-15T16:17:50.052Z,13.62
2022-11-15T16:20:26.307Z,13.65
2022-11-15T16:22:54.491Z,13.66
2022-11-15T16:25:22.536Z,13.67
2022-11-15T16:27:50.658Z,13.67
2022-11-15T16:30:25.178Z,13.68
2022-11-15T16:32:54.701Z,13.71
2022-11-15T16:35:22.808Z,13.72
2022-11-15T16:37:51.264Z,13.73
2022-11-15T16:40:25.981Z,13.74
2022-11-15T16:42:54.220Z,13.76
2022-11-15T16:45:24.541Z,13.77
2022-11-15T16:47:54.217Z,13.78
2022-11-15T16:50:24.191Z,13.79
2022-11-15T16:52:53.889Z,13.81
2022-11-15T16:55:22.798Z,13.82
2022-11-15T16:57:51.186Z,13.82
2022-11-15T17:00:20.839Z,13.83
2022-11-15T17:02:51.744Z,13.83
2022-11-15T17:05:24.394Z,13.83
2022-11-15T17:07:54.163Z,13.81
2022-11-15T17:10:22.928Z,13.81
2022-11-15T17:12:51.501Z,13.80
2022-11-15T17:15:19.988Z,13.82
2022-11-15T17:17:54.321Z,13.82
2022-11-15T17:20:24.852Z,13.83
2022-11-15T17:22:53.432Z,13.82
2022-11-15T17:25:21.381Z,13.81
2022-11-15T17:27:49.560Z,13.81
2022-11-15T17:30:18.665Z,13.81
2022-11-15T17:32:47.967Z,13.82
2022-11-15T17:35:17.425Z,13.79
2022-11-15T17:37:47.188Z,13.78
2022-11-15T17:40:15.151Z,13.78
2022-11-15T17:42:43.332Z,13.78
2022-11-15T17:45:12.214Z,13.79
2022-11-15T17:47:40.840Z,13.78
2022-11-15T17:50:10.574Z,13.80
2022-11-15T17:52:40.090Z,13.80
2022-11-15T17:55:08.501Z,13.82
2022-11-15T17:57:36.621Z,13.81
2022-11-15T18:00:06.252Z,13.81
2022-11-15T18:02:34.405Z,13.83
2022-11-15T18:05:03.213Z,13.82
2022-11-15T18:07:31.491Z,13.82
2022-11-15T18:10:00.811Z,13.84
2022-11-15T18:12:28.999Z,13.83
2022-11-15T18:14:57.935Z,13.83
2022-11-15T18:17:26.136Z,13.84
2022-11-15T18:19:54.195Z,13.84
2022-11-15T18:22:23.378Z,13.85
2022-11-15T18:24:51.635Z,13.85
2022-11-15T18:27:21.213Z,13.85
2022-11-15T18:29:49.173Z,13.85
2022-11-15T18:32:17.741Z,13.84
2022-11-15T18:34:45.770Z,13.85
2022-11-15T18:37:14.024Z,13.83
2022-11-15T18:39:42.167Z,13.85
2022-11-15T18:42:10.370Z,13.86
2022-11-15T18:44:39.558Z,13.85
2022-11-15T18:47:07.828Z,13.87
2022-11-15T18:49:35.765Z,13.87
2022-11-15T18:52:04.099Z,13.87
2022-11-15T18:54:32.021Z,13.89
2022-11-15T18:57:00.486Z,13.91
2022-11-15T18:59:28.920Z,13.93
2022-11-15T19:01:58.423Z,13.94
2022-11-15T19:04:26.391Z,13.96
2022-11-15T19:06:54.671Z,13.97
2022-11-15T19:09:27.077Z,13.98
2022-11-15T19:11:55.245Z,13.97
2022-11-15T19:14:25.179Z,13.97
2022-11-15T19:16:54.599Z,13.96
2022-11-15T19:19:25.460Z,13.95
2022-11-15T19:21:53.821Z,13.94
2022-11-15T19:24:22.116Z,13.93
2022-11-15T19:26:50.389Z,13.92
2022-11-15T19:29:18.755Z,13.92
2022-11-15T19:31:48.449Z,13.90
2022-11-15T19:34:17.766Z,13.90
2022-11-15T19:36:47.320Z,13.90
2022-11-15T19:39:18.003Z,13.90
2022-11-15T19:41:47.036Z,13.90
2022-11-15T19:44:15.246Z,13.89
2022-11-15T19:46:45.503Z,13.86
2022-11-15T19:49:13.829Z,13.82
2022-11-15T19:51:44.952Z,13.80
2022-11-15T19:54:16.856Z,13.77
2022-11-15T19:56:45.570Z,13.76
2022-11-15T19:59:14.199Z,13.74
2022-11-15T20:01:42.577Z,13.72
2022-11-15T20:04:10.786Z,13.71
2022-11-15T20:06:41.640Z,13.68
2022-11-15T20:09:14.490Z,13.68
2022-11-15T20:11:46.017Z,13.67
2022-11-15T20:14:14.486Z,13.65
2022-11-15T20:16:43.099Z,13.64
2022-11-15T20:19:12.467Z,13.65
2022-11-15T20:21:40.965Z,13.64
2022-11-15T20:24:09.359Z,13.64
2022-11-15T20:26:39.252Z,13.61
2022-11-15T20:29:08.424Z,13.63
2022-11-15T20:31:37.053Z,13.64
2022-11-15T20:34:05.011Z,13.64
2022-11-15T20:36:33.239Z,13.62
2022-11-15T20:39:01.539Z,13.60
2022-11-15T20:41:29.923Z,13.58
2022-11-15T20:43:59.444Z,13.56
2022-11-15T20:46:27.650Z,13.54
2022-11-15T20:48:55.817Z,13.52
2022-11-15T20:51:23.967Z,13.52
2022-11-15T20:53:52.398Z,13.50
2022-11-15T20:56:22.224Z,13.50
2022-11-15T20:58:51.126Z,13.49
2022-11-15T21:01:23.697Z,13.47
2022-11-15T21:03:52.882Z,13.46
2022-11-15T21:06:21.441Z,13.46
2022-11-15T21:09:07.540Z,13.46
2022-11-15T21:11:53.568Z,13.44
2022-11-15T21:14:21.675Z,13.44
2022-11-15T21:16:51.354Z,13.42
2022-11-15T21:19:23.890Z,13.42
2022-11-15T21:21:55.556Z,13.40
2022-11-15T21:24:24.582Z,13.39
2022-11-15T21:26:53.446Z,13.38
2022-11-15T21:29:21.595Z,13.38
2022-11-15T21:31:52.545Z,13.36
2022-11-15T21:34:21.383Z,13.34
2022-11-15T21:36:49.597Z,13.33
2022-11-15T21:39:17.574Z,13.31
2022-11-15T21:41:45.795Z,13.28
2022-11-15T21:44:14.026Z,13.27
2022-11-15T21:46:42.243Z,13.23
2022-11-15T21:49:11.798Z,13.22
2022-11-15T21:51:39.982Z,13.22
2022-11-15T21:54:08.190Z,13.21
2022-11-15T21:56:36.434Z,13.21
2022-11-15T21:59:04.617Z,13.21
2022-11-15T22:01:50.586Z,13.18
2022-11-15T22:04:21.356Z,13.13
2022-11-15T22:06:49.595Z,13.09
2022-11-15T22:09:17.849Z,12.99
2022-11-15T22:11:46.980Z,12.95
2022-11-15T22:14:15.047Z,12.89
2022-11-15T22:16:43.267Z,12.89
2022-11-15T22:19:11.422Z,12.87
2022-11-15T22:21:41.140Z,12.85
2022-11-15T22:24:09.613Z,12.83
2022-11-15T22:26:37.976Z,12.76
2022-11-15T22:29:06.128Z,12.68
2022-11-15T22:31:34.449Z,12.64
2022-11-15T22:34:02.654Z,12.63
2022-11-15T22:36:46.834Z,12.64
2022-11-15T22:39:20.871Z,12.66
2022-11-15T22:41:49.233Z,12.67
2022-11-15T22:44:17.451Z,12.65
2022-11-15T22:46:45.751Z,12.66
2022-11-15T22:49:13.804Z,12.68
2022-11-15T22:51:42.123Z,12.69
2022-11-15T22:54:10.280Z,12.69
2022-11-15T22:56:39.971Z,12.72
2022-11-15T22:59:08.056Z,12.73
2022-11-15T23:01:36.359Z,12.73
2022-11-15T23:04:04.490Z,12.75
2022-11-15T23:06:32.921Z,12.77
2022-11-15T23:09:01.167Z,12.76
2022-11-15T23:11:46.866Z,12.73
2022-11-15T23:14:16.362Z,12.68
2022-11-15T23:16:44.666Z,12.67
2022-11-15T23:19:13.391Z,12.59
2022-11-15T23:22:00.301Z,12.54
2022-11-15T23:24:28.725Z,12.44
2022-11-15T23:26:58.307Z,12.45
2022-11-15T23:29:28.866Z,12.47
2022-11-15T23:32:15.187Z,12.47
2022-11-15T23:34:45.530Z,12.45
2022-11-15T23:37:15.836Z,12.46
2022-11-15T23:39:43.942Z,12.45
2022-11-15T23:42:19.616Z,12.46
2022-11-15T23:44:50.658Z,12.47
2022-11-15T23:47:19.362Z,12.50
2022-11-15T23:49:47.579Z,12.46
2022-11-15T23:52:16.458Z,12.41
2022-11-15T23:54:44.685Z,12.35
2022-11-15T23:57:13.163Z,12.29
2022-11-15T23:59:43.333Z,12.25
